createdAt,value
2022-09-03T00:01:01.828Z,3.15
2022-09-03T00:02:22.831Z,2.85
2022-09-03T00:03:37.595Z,2.67
2022-09-03T00:04:53.263Z,2.13
2022-09-03T00:06:17.499Z,2.75
2022-09-03T00:07:32.116Z,2.80
2022-09-03T00:08:46.518Z,2.87
2022-09-03T00:09:55.837Z,3.55
2022-09-03T00:11:22.997Z,5.85
2022-09-03T00:12:32.355Z,7.97
2022-09-03T00:13:44.321Z,6.90
2022-09-03T00:15:04.162Z,5.57
2022-09-03T00:16:11.497Z,3.45
2022-09-03T00:17:22.434Z,2.85
2022-09-03T00:18:30.240Z,2.67
2022-09-03T00:19:36.956Z,2.63
2022-09-03T00:20:50.932Z,2.67
2022-09-03T00:21:57.577Z,2.17
2022-09-03T00:23:03.844Z,2.55
2022-09-03T00:24:10.902Z,2.30
2022-09-03T00:25:29.105Z,2.60
2022-09-03T00:26:35.365Z,2.50
2022-09-03T00:27:40.368Z,2.53
2022-09-03T00:28:45.498Z,2.25
2022-09-03T00:29:57.652Z,2.25
2022-09-03T00:31:14.976Z,1.70
2022-09-03T00:32:26.795Z,1.70
2022-09-03T00:33:31.212Z,1.40
2022-09-03T00:34:39.391Z,1.45
2022-09-03T00:35:53.839Z,1.27
2022-09-03T00:36:55.782Z,1.23
2022-09-03T00:37:57.739Z,1.02
2022-09-03T00:38:59.733Z,1.05
2022-09-03T00:40:03.254Z,1.50
2022-09-03T00:41:11.087Z,1.55
2022-09-03T00:42:42.514Z,1.13
2022-09-03T00:43:46.210Z,1.10
2022-09-03T00:44:54.987Z,1.00
2022-09-03T00:46:05.276Z,1.15
2022-09-03T00:47:25.800Z,0.90
2022-09-03T00:48:32.873Z,1.38
2022-09-03T00:49:50.953Z,1.20
2022-09-03T00:51:17.676Z,1.25
2022-09-03T00:52:19.687Z,1.30
2022-09-03T00:53:44.816Z,1.45
2022-09-03T00:54:55.363Z,1.27
2022-09-03T00:56:41.068Z,1.50
2022-09-03T00:57:48.858Z,1.02
2022-09-03T00:59:19.307Z,1.20
2022-09-03T01:00:21.705Z,0.98
2022-09-03T01:01:35.351Z,1.38
2022-09-03T01:02:56.116Z,1.08
2022-09-03T01:04:28.982Z,1.20
2022-09-03T01:06:09.085Z,1.45
2022-09-03T01:07:19.400Z,1.17
2022-09-03T01:08:49.205Z,1.20
2022-09-03T01:10:19.079Z,1.30
2022-09-03T01:11:47.163Z,1.30
2022-09-03T01:13:20.276Z,1.15
2022-09-03T01:14:24.730Z,1.48
2022-09-03T01:16:03.594Z,0.90
2022-09-03T01:17:13.283Z,1.25
2022-09-03T01:18:31.975Z,1.10
2022-09-03T01:19:52.095Z,1.20
2022-09-03T01:21:23.548Z,1.35
2022-09-03T01:22:49.663Z,1.15
2022-09-03T01:24:31.778Z,1.20
2022-09-03T01:25:54.645Z,1.17
2022-09-03T01:27:11.026Z,0.90
2022-09-03T01:28:22.079Z,1.30
2022-09-03T01:29:39.862Z,1.38
2022-09-03T01:30:49.156Z,1.27
2022-09-03T01:31:57.894Z,1.10
2022-09-03T01:33:05.196Z,1.40
2022-09-03T01:34:09.884Z,1.25
2022-09-03T01:35:20.736Z,1.33
2022-09-03T01:36:49.657Z,1.30
2022-09-03T01:38:20.864Z,1.30
2022-09-03T01:39:39.298Z,1.23
2022-09-03T01:40:50.498Z,1.48
2022-09-03T01:42:29.562Z,1.02
2022-09-03T01:43:45.610Z,1.52
2022-09-03T01:45:06.464Z,1.40
2022-09-03T01:46:24.373Z,1.48
2022-09-03T01:47:51.558Z,1.15
2022-09-03T01:49:11.242Z,1.40
2022-09-03T01:50:25.070Z,1.20
2022-09-03T01:51:30.047Z,1.45
2022-09-03T01:52:54.801Z,1.38
2022-09-03T01:54:01.453Z,1.20
2022-09-03T01:55:18.658Z,1.30
2022-09-03T01:56:21.086Z,0.95
2022-09-03T01:57:36.975Z,1.60
2022-09-03T01:59:01.043Z,1.20
2022-09-03T02:00:08.408Z,1.92
2022-09-03T02:01:26.480Z,1.15
2022-09-03T02:02:30.756Z,1.00
2022-09-03T02:03:42.705Z,1.40
2022-09-03T02:05:02.470Z,2.05
2022-09-03T02:06:05.987Z,1.20
2022-09-03T02:07:07.698Z,0.90
2022-09-03T02:08:11.769Z,1.27
2022-09-03T02:09:13.971Z,1.10
2022-09-03T02:10:19.359Z,1.02
2022-09-03T02:11:22.070Z,1.10
2022-09-03T02:12:24.248Z,1.00
2022-09-03T02:13:31.277Z,1.20
2022-09-03T02:14:33.202Z,1.25
2022-09-03T02:15:38.153Z,1.20
2022-09-03T02:16:40.078Z,1.15
2022-09-03T02:17:43.930Z,1.25
2022-09-03T02:18:56.049Z,1.02
2022-09-03T02:19:59.032Z,0.88
2022-09-03T02:21:01.269Z,1.20
2022-09-03T02:22:04.092Z,1.00
2022-09-03T02:23:06.363Z,1.02
2022-09-03T02:24:08.876Z,1.20
2022-09-03T02:25:11.108Z,1.10
2022-09-03T02:26:18.394Z,0.90
2022-09-03T02:27:20.412Z,1.00
2022-09-03T02:28:23.295Z,1.40
2022-09-03T02:29:25.242Z,0.98
2022-09-03T02:30:28.639Z,1.10
2022-09-03T02:31:30.791Z,1.35
2022-09-03T02:32:33.271Z,1.10
2022-09-03T02:33:40.491Z,1.20
2022-09-03T02:34:44.019Z,1.20
2022-09-03T02:35:46.430Z,1.00
2022-09-03T02:36:48.149Z,1.45
2022-09-03T02:37:50.530Z,1.15
2022-09-03T02:38:52.278Z,1.10
2022-09-03T02:39:54.509Z,1.20
2022-09-03T02:40:56.327Z,1.38
2022-09-03T02:41:59.494Z,1.92
2022-09-03T02:43:02.054Z,1.20
2022-09-03T02:44:11.139Z,1.10
2022-09-03T02:45:27.772Z,1.20
2022-09-03T02:46:35.741Z,1.20
2022-09-03T02:47:42.660Z,1.13
2022-09-03T02:48:44.353Z,1.35
2022-09-03T02:49:49.053Z,1.05
2022-09-03T02:50:51.402Z,1.13
2022-09-03T02:52:01.805Z,1.38
2022-09-03T02:53:03.516Z,1.17
2022-09-03T02:54:05.834Z,1.10
2022-09-03T02:55:07.922Z,1.27
2022-09-03T02:56:09.764Z,1.37
2022-09-03T02:57:14.994Z,1.23
2022-09-03T02:58:16.746Z,1.10
2022-09-03T02:59:18.446Z,1.20
2022-09-03T03:00:20.165Z,1.20
2022-09-03T03:01:24.073Z,1.02
2022-09-03T03:02:26.140Z,0.93
2022-09-03T03:03:28.328Z,1.30
2022-09-03T03:04:31.189Z,1.30
2022-09-03T03:05:46.373Z,1.15
2022-09-03T03:06:50.659Z,1.20
2022-09-03T03:07:52.388Z,1.15
2022-09-03T03:08:55.854Z,1.25
2022-09-03T03:09:57.607Z,1.30
2022-09-03T03:11:00.701Z,1.17
2022-09-03T03:12:02.683Z,1.10
2022-09-03T03:13:04.404Z,1.25
2022-09-03T03:14:06.176Z,1.23
2022-09-03T03:15:08.142Z,1.42
2022-09-03T03:16:10.396Z,1.25
2022-09-03T03:17:12.092Z,1.37
2022-09-03T03:18:14.131Z,1.27
2022-09-03T03:19:15.859Z,1.23
2022-09-03T03:20:17.577Z,1.40
2022-09-03T03:21:19.635Z,1.13
2022-09-03T03:22:21.358Z,1.40
2022-09-03T03:23:23.065Z,1.30
2022-09-03T03:24:24.786Z,1.20
2022-09-03T03:25:26.480Z,1.08
2022-09-03T03:26:28.767Z,1.20
2022-09-03T03:27:30.469Z,1.30
2022-09-03T03:28:35.507Z,1.15
2022-09-03T03:29:37.278Z,1.05
2022-09-03T03:30:40.198Z,1.20
2022-09-03T03:31:41.949Z,1.27
2022-09-03T03:32:43.690Z,1.10
2022-09-03T03:34:00.393Z,1.15
2022-09-03T03:35:02.129Z,1.20
2022-09-03T03:36:07.069Z,1.25
2022-09-03T03:37:08.773Z,1.00
2022-09-03T03:38:10.725Z,1.20
2022-09-03T03:39:12.469Z,1.45
2022-09-03T03:40:15.443Z,1.20
2022-09-03T03:41:19.732Z,1.00
2022-09-03T03:42:21.418Z,1.15
2022-09-03T03:43:23.166Z,1.15
2022-09-03T03:44:24.910Z,1.38
2022-09-03T03:45:26.664Z,1.30
2022-09-03T03:46:38.714Z,1.30
2022-09-03T03:47:40.541Z,1.20
2022-09-03T03:48:42.318Z,1.43
2022-09-03T03:49:44.365Z,1.17
2022-09-03T03:50:47.448Z,1.40
2022-09-03T03:51:49.198Z,1.50
2022-09-03T03:52:51.124Z,1.10
2022-09-03T03:53:57.199Z,1.70
2022-09-03T03:54:58.908Z,1.40
2022-09-03T03:56:03.771Z,1.70
2022-09-03T03:57:05.509Z,1.17
2022-09-03T03:58:07.295Z,1.23
2022-09-03T03:59:09.010Z,1.50
2022-09-03T04:00:11.141Z,1.55
2022-09-03T04:01:21.253Z,1.17
2022-09-03T04:02:23.059Z,1.30
2022-09-03T04:03:24.810Z,1.30
2022-09-03T04:04:26.634Z,1.50
2022-09-03T04:05:28.344Z,1.60
2022-09-03T04:06:35.507Z,1.40
2022-09-03T04:07:37.191Z,1.27
2022-09-03T04:08:41.989Z,1.17
2022-09-03T04:09:43.707Z,1.27
2022-09-03T04:10:45.395Z,1.40
2022-09-03T04:11:47.082Z,1.10
2022-09-03T04:12:48.778Z,1.27
2022-09-03T04:13:51.440Z,1.20
2022-09-03T04:14:53.131Z,1.30
2022-09-03T04:16:04.271Z,1.20
2022-09-03T04:17:06.023Z,1.10
2022-09-03T04:18:08.461Z,1.30
2022-09-03T04:19:10.145Z,1.23
2022-09-03T04:20:11.898Z,1.27
2022-09-03T04:21:16.781Z,1.00
2022-09-03T04:22:19.640Z,1.25
2022-09-03T04:23:21.538Z,1.40
2022-09-03T04:24:23.900Z,1.10
2022-09-03T04:25:25.594Z,1.13
2022-09-03T04:26:32.134Z,1.10
2022-09-03T04:27:34.059Z,1.17
2022-09-03T04:28:36.526Z,0.90
2022-09-03T04:29:38.291Z,1.23
2022-09-03T04:30:41.329Z,1.07
2022-09-03T04:32:05.954Z,1.38
2022-09-03T04:33:07.650Z,1.00
2022-09-03T04:34:18.017Z,1.38
2022-09-03T04:35:24.310Z,1.17
2022-09-03T04:36:28.515Z,1.20
2022-09-03T04:37:30.245Z,1.33
2022-09-03T04:38:36.646Z,1.10
2022-09-03T04:39:38.365Z,1.10
2022-09-03T04:40:40.128Z,1.00
2022-09-03T04:41:41.817Z,1.07
2022-09-03T04:42:43.891Z,0.90
2022-09-03T04:43:48.616Z,1.20
2022-09-03T04:44:53.210Z,1.02
2022-09-03T04:45:59.665Z,1.20
2022-09-03T04:47:01.419Z,1.08
2022-09-03T04:48:04.424Z,1.27
2022-09-03T04:49:09.366Z,1.20
2022-09-03T04:50:11.593Z,1.30
2022-09-03T04:51:16.231Z,1.50
2022-09-03T04:52:17.925Z,1.23
2022-09-03T04:53:19.629Z,1.20
2022-09-03T04:54:21.336Z,1.10
2022-09-03T04:55:23.203Z,1.00
2022-09-03T04:56:27.689Z,1.20
2022-09-03T04:57:34.390Z,1.17
2022-09-03T04:58:36.293Z,1.10
2022-09-03T04:59:41.109Z,1.13
2022-09-03T05:00:42.964Z,1.20
2022-09-03T05:01:44.723Z,1.20
2022-09-03T05:02:51.854Z,1.20
2022-09-03T05:03:53.953Z,1.25
2022-09-03T05:04:55.694Z,1.20
2022-09-03T05:06:00.583Z,1.17
2022-09-03T05:07:02.349Z,1.10
2022-09-03T05:08:04.402Z,1.40
2022-09-03T05:09:06.660Z,1.20
2022-09-03T05:10:13.145Z,1.17
2022-09-03T05:11:14.981Z,1.23
2022-09-03T05:12:17.735Z,0.98
2022-09-03T05:13:19.416Z,1.20
2022-09-03T05:14:21.475Z,1.10
2022-09-03T05:15:23.177Z,1.10
2022-09-03T05:16:26.388Z,1.25
2022-09-03T05:17:28.147Z,0.90
2022-09-03T05:18:30.024Z,1.15
2022-09-03T05:19:31.801Z,1.35
2022-09-03T05:20:33.551Z,1.00
2022-09-03T05:21:36.161Z,1.02
2022-09-03T05:22:37.937Z,1.25
2022-09-03T05:23:42.558Z,1.30
2022-09-03T05:24:44.270Z,1.30
2022-09-03T05:25:59.416Z,1.20
2022-09-03T05:27:01.307Z,1.38
2022-09-03T05:28:03.258Z,1.35
2022-09-03T05:29:09.512Z,1.02
2022-09-03T05:30:13.164Z,1.25
2022-09-03T05:31:17.389Z,1.20
2022-09-03T05:32:19.165Z,1.30
2022-09-03T05:33:24.143Z,1.17
2022-09-03T05:34:25.928Z,1.20
2022-09-03T05:35:30.147Z,1.13
2022-09-03T05:36:34.825Z,1.05
2022-09-03T05:37:37.528Z,1.20
2022-09-03T05:38:39.618Z,1.40
2022-09-03T05:39:41.347Z,1.00
2022-09-03T05:40:43.070Z,1.20
2022-09-03T05:41:44.825Z,1.40
2022-09-03T05:42:46.526Z,1.23
2022-09-03T05:43:56.696Z,1.02
2022-09-03T05:44:58.591Z,1.20
2022-09-03T05:46:17.334Z,1.15
2022-09-03T05:47:19.061Z,1.15
2022-09-03T05:48:20.786Z,1.20
2022-09-03T05:49:23.097Z,1.27
2022-09-03T05:50:24.792Z,1.20
2022-09-03T05:51:26.722Z,1.13
2022-09-03T05:52:28.425Z,1.20
2022-09-03T05:53:34.243Z,1.10
2022-09-03T05:54:36.039Z,1.00
2022-09-03T05:55:37.726Z,1.10
2022-09-03T05:56:40.972Z,1.10
2022-09-03T05:57:43.466Z,1.00
2022-09-03T05:58:47.709Z,1.25
2022-09-03T05:59:49.881Z,1.48
2022-09-03T06:00:52.225Z,1.20
2022-09-03T06:01:58.034Z,1.02
2022-09-03T06:03:01.693Z,1.30
2022-09-03T06:04:07.813Z,1.10
2022-09-03T06:05:09.524Z,1.20
2022-09-03T06:06:13.738Z,1.17
2022-09-03T06:07:16.177Z,1.30
2022-09-03T06:08:18.083Z,1.10
2022-09-03T06:09:23.376Z,1.00
2022-09-03T06:10:28.701Z,1.13
2022-09-03T06:11:35.643Z,0.93
2022-09-03T06:12:49.663Z,0.73
2022-09-03T06:13:51.356Z,1.00
2022-09-03T06:14:53.091Z,1.00
2022-09-03T06:16:02.964Z,0.85
2022-09-03T06:17:04.737Z,0.80
2022-09-03T06:18:06.655Z,0.90
2022-09-03T06:19:10.834Z,1.00
2022-09-03T06:20:12.546Z,1.10
2022-09-03T06:21:15.099Z,1.05
2022-09-03T06:22:17.176Z,0.80
2022-09-03T06:23:18.850Z,0.88
2022-09-03T06:24:28.241Z,0.90
2022-09-03T06:25:30.322Z,0.90
2022-09-03T06:26:32.228Z,0.80
2022-09-03T06:27:33.921Z,0.97
2022-09-03T06:28:38.446Z,1.00
2022-09-03T06:29:40.147Z,0.90
2022-09-03T06:30:41.929Z,0.95
2022-09-03T06:31:43.760Z,0.98
2022-09-03T06:32:46.571Z,0.70
2022-09-03T06:33:48.836Z,1.00
2022-09-03T06:34:50.503Z,1.15
2022-09-03T06:35:58.664Z,0.90
2022-09-03T06:37:00.399Z,0.95
2022-09-03T06:38:02.073Z,0.97
2022-09-03T06:39:04.191Z,0.88
2022-09-03T06:40:13.213Z,0.70
2022-09-03T06:41:21.065Z,0.82
2022-09-03T06:42:22.885Z,0.82
2022-09-03T06:43:24.982Z,0.60
2022-09-03T06:44:26.701Z,0.70
2022-09-03T06:45:29.307Z,0.90
2022-09-03T06:46:33.649Z,1.15
2022-09-03T06:47:35.598Z,0.90
2022-09-03T06:48:38.665Z,0.70
2022-09-03T06:49:40.364Z,0.70
2022-09-03T06:50:42.658Z,0.70
2022-09-03T06:51:44.427Z,1.00
2022-09-03T06:52:55.022Z,0.80
2022-09-03T06:54:02.445Z,0.80
2022-09-03T06:55:04.532Z,0.70
2022-09-03T06:56:11.499Z,0.70
2022-09-03T06:57:13.191Z,1.00
2022-09-03T06:58:14.945Z,1.05
2022-09-03T06:59:17.735Z,1.00
2022-09-03T07:00:21.274Z,0.70
2022-09-03T07:01:26.009Z,0.90
2022-09-03T07:02:27.859Z,0.60
2022-09-03T07:03:30.094Z,0.80
2022-09-03T07:04:34.653Z,0.70
2022-09-03T07:05:37.529Z,0.73
2022-09-03T07:06:42.044Z,1.00
2022-09-03T07:07:46.249Z,0.80
2022-09-03T07:08:48.029Z,0.70
2022-09-03T07:09:49.708Z,0.80
2022-09-03T07:10:51.388Z,0.80
2022-09-03T07:11:53.312Z,0.80
2022-09-03T07:12:56.024Z,0.70
2022-09-03T07:13:58.820Z,0.70
2022-09-03T07:15:00.499Z,0.63
2022-09-03T07:16:05.256Z,0.70
2022-09-03T07:17:07.005Z,0.70
2022-09-03T07:18:08.708Z,0.73
2022-09-03T07:19:10.654Z,0.93
2022-09-03T07:20:12.336Z,0.87
2022-09-03T07:21:17.229Z,0.75
2022-09-03T07:22:18.921Z,0.77
2022-09-03T07:23:20.600Z,0.95
2022-09-03T07:24:22.655Z,0.90
2022-09-03T07:25:26.259Z,0.90
2022-09-03T07:26:30.487Z,0.88
2022-09-03T07:27:32.278Z,0.80
2022-09-03T07:28:36.546Z,0.85
2022-09-03T07:29:38.227Z,0.95
2022-09-03T07:30:39.908Z,0.60
2022-09-03T07:31:43.259Z,0.70
2022-09-03T07:32:46.545Z,0.70
2022-09-03T07:33:48.321Z,0.90
2022-09-03T07:34:52.841Z,0.82
2022-09-03T07:35:54.532Z,0.70
2022-09-03T07:36:56.252Z,0.50
2022-09-03T07:37:57.959Z,0.50
2022-09-03T07:38:59.905Z,0.70
2022-09-03T07:40:02.000Z,0.57
2022-09-03T07:41:06.381Z,0.70
2022-09-03T07:42:11.009Z,0.70
2022-09-03T07:43:13.379Z,0.70
2022-09-03T07:44:19.253Z,0.50
2022-09-03T07:45:25.947Z,0.73
2022-09-03T07:46:27.958Z,0.77
2022-09-03T07:47:30.832Z,0.80
2022-09-03T07:48:37.194Z,0.80
2022-09-03T07:49:39.230Z,0.63
2022-09-03T07:50:40.938Z,0.55
2022-09-03T07:51:42.747Z,0.73
2022-09-03T07:52:44.542Z,0.90
2022-09-03T07:53:47.566Z,0.60
2022-09-03T07:54:49.263Z,0.80
2022-09-03T07:55:51.864Z,0.60
2022-09-03T07:56:53.690Z,0.60
2022-09-03T07:57:59.503Z,0.30
2022-09-03T07:59:01.738Z,0.60
2022-09-03T08:00:04.456Z,0.68
2022-09-03T08:01:11.235Z,0.60
2022-09-03T08:02:13.168Z,0.60
2022-09-03T08:03:14.873Z,0.68
2022-09-03T08:04:16.693Z,0.65
2022-09-03T08:05:21.197Z,0.60
2022-09-03T08:06:25.181Z,0.60
2022-09-03T08:07:29.566Z,0.82
2022-09-03T08:08:35.669Z,0.70
2022-09-03T08:09:38.009Z,0.63
2022-09-03T08:10:40.037Z,0.70
2022-09-03T08:11:45.793Z,0.50
2022-09-03T08:12:47.495Z,0.77
2022-09-03T08:14:02.617Z,0.57
2022-09-03T08:15:05.202Z,0.70
2022-09-03T08:16:08.457Z,0.63
2022-09-03T08:17:12.595Z,0.75
2022-09-03T08:18:15.517Z,0.68
2022-09-03T08:19:18.804Z,0.60
2022-09-03T08:20:20.711Z,0.65
2022-09-03T08:21:23.339Z,0.70
2022-09-03T08:22:25.491Z,0.70
2022-09-03T08:23:27.323Z,0.60
2022-09-03T08:24:29.089Z,0.80
2022-09-03T08:25:30.809Z,0.85
2022-09-03T08:26:34.923Z,0.80
2022-09-03T08:27:36.674Z,0.63
2022-09-03T08:28:39.376Z,0.60
2022-09-03T08:29:42.062Z,0.60
2022-09-03T08:30:43.785Z,0.73
2022-09-03T08:31:45.592Z,0.80
2022-09-03T08:32:47.955Z,0.70
2022-09-03T08:33:52.258Z,0.67
2022-09-03T08:34:53.949Z,0.47
2022-09-03T08:35:55.685Z,4.15
2022-09-03T08:36:59.039Z,1.65
2022-09-03T08:38:05.362Z,1.20
2022-09-03T08:39:10.697Z,0.90
2022-09-03T08:40:13.153Z,1.10
2022-09-03T08:41:24.292Z,0.75
2022-09-03T08:42:41.088Z,0.77
2022-09-03T08:44:17.013Z,0.60
2022-09-03T08:45:21.415Z,0.80
2022-09-03T08:46:32.569Z,0.70
2022-09-03T08:47:49.007Z,0.57
2022-09-03T08:48:51.635Z,0.55
2022-09-03T08:50:13.210Z,0.73
2022-09-03T08:51:18.146Z,0.70
2022-09-03T08:52:50.011Z,0.57
2022-09-03T08:53:57.317Z,0.45
2022-09-03T08:55:11.093Z,0.57
2022-09-03T08:56:21.215Z,0.60
2022-09-03T08:57:25.133Z,0.50
2022-09-03T08:58:30.144Z,0.60
2022-09-03T08:59:33.178Z,0.70
2022-09-03T09:00:37.735Z,0.70
2022-09-03T09:02:07.132Z,0.65
2022-09-03T09:03:41.410Z,0.50
2022-09-03T09:04:43.115Z,0.70
2022-09-03T09:06:10.119Z,0.80
2022-09-03T09:07:22.012Z,0.60
2022-09-03T09:08:23.686Z,0.70
2022-09-03T09:09:44.237Z,0.97
2022-09-03T09:10:49.472Z,0.68
2022-09-03T09:12:07.995Z,0.70
2022-09-03T09:13:24.194Z,0.77
2022-09-03T09:14:38.058Z,0.80
2022-09-03T09:16:11.404Z,0.60
2022-09-03T09:17:34.455Z,0.68
2022-09-03T09:18:54.902Z,0.70
2022-09-03T09:20:21.646Z,0.90
2022-09-03T09:21:36.096Z,0.60
2022-09-03T09:22:56.572Z,0.70
2022-09-03T09:24:04.684Z,0.57
2022-09-03T09:25:17.721Z,0.50
2022-09-03T09:26:21.570Z,0.68
2022-09-03T09:27:24.902Z,0.70
2022-09-03T09:28:36.400Z,0.65
2022-09-03T09:29:39.354Z,0.60
2022-09-03T09:30:42.174Z,0.80
2022-09-03T09:31:45.163Z,0.60
2022-09-03T09:32:49.827Z,0.52
2022-09-03T09:33:52.486Z,0.90
2022-09-03T09:34:54.977Z,0.70
2022-09-03T09:35:56.741Z,0.65
2022-09-03T09:36:58.555Z,0.90
2022-09-03T09:38:00.421Z,0.52
2022-09-03T09:39:12.303Z,0.80
2022-09-03T09:40:35.927Z,0.90
2022-09-03T09:41:37.802Z,0.80
2022-09-03T09:42:39.635Z,0.77
2022-09-03T09:43:41.945Z,0.70
2022-09-03T09:44:44.262Z,0.70
2022-09-03T09:45:50.736Z,0.80
2022-09-03T09:47:13.095Z,0.80
2022-09-03T09:48:20.585Z,0.88
2022-09-03T09:49:37.138Z,0.70
2022-09-03T09:50:38.924Z,0.73
2022-09-03T09:51:40.712Z,0.70
2022-09-03T09:52:43.971Z,0.50
2022-09-03T09:54:02.284Z,0.75
2022-09-03T09:55:15.808Z,0.70
2022-09-03T09:56:25.612Z,0.50
2022-09-03T09:57:27.344Z,0.80
2022-09-03T09:58:30.999Z,0.70
2022-09-03T09:59:34.083Z,0.80
2022-09-03T10:00:37.815Z,0.80
2022-09-03T10:01:44.876Z,0.80
2022-09-03T10:02:54.736Z,0.80
2022-09-03T10:03:59.290Z,0.70
2022-09-03T10:05:13.592Z,0.77
2022-09-03T10:06:35.364Z,0.68
2022-09-03T10:07:37.133Z,0.70
2022-09-03T10:08:38.867Z,0.70
2022-09-03T10:09:40.652Z,0.60
2022-09-03T10:10:49.771Z,0.80
2022-09-03T10:12:14.677Z,0.80
2022-09-03T10:13:26.791Z,0.70
2022-09-03T10:14:35.089Z,0.80
2022-09-03T10:15:46.728Z,0.75
2022-09-03T10:16:56.029Z,0.70
2022-09-03T10:18:04.054Z,0.60
2022-09-03T10:19:11.024Z,0.70
2022-09-03T10:20:44.312Z,0.90
2022-09-03T10:21:54.098Z,0.68
2022-09-03T10:23:16.281Z,0.70
2022-09-03T10:25:02.479Z,0.40
2022-09-03T10:26:30.733Z,0.60
2022-09-03T10:27:33.938Z,0.80
2022-09-03T10:28:41.874Z,0.40
2022-09-03T10:29:43.572Z,0.70
2022-09-03T10:30:55.542Z,0.93
2022-09-03T10:32:27.478Z,0.60
2022-09-03T10:33:51.314Z,0.50
2022-09-03T10:35:12.701Z,0.70
2022-09-03T10:36:26.512Z,0.82
2022-09-03T10:37:38.790Z,0.60
2022-09-03T10:38:43.066Z,0.60
2022-09-03T10:39:56.622Z,0.60
2022-09-03T10:41:32.720Z,0.70
2022-09-03T10:42:49.466Z,0.80
2022-09-03T10:44:00.060Z,0.60
2022-09-03T10:45:37.787Z,0.60
2022-09-03T10:46:58.788Z,0.82
2022-09-03T10:48:12.287Z,0.70
2022-09-03T10:49:23.503Z,0.60
2022-09-03T10:50:34.286Z,1.15
2022-09-03T10:51:49.550Z,0.70
2022-09-03T10:52:54.500Z,0.60
2022-09-03T10:54:01.966Z,0.60
2022-09-03T10:55:45.144Z,0.50
2022-09-03T10:57:17.249Z,0.52
2022-09-03T10:58:34.877Z,0.80
2022-09-03T10:59:43.793Z,0.70
2022-09-03T11:00:54.558Z,0.60
2022-09-03T11:02:29.601Z,0.60
2022-09-03T11:03:51.642Z,0.73
2022-09-03T11:05:03.547Z,0.60
2022-09-03T11:06:13.434Z,0.60
2022-09-03T11:07:20.482Z,0.70
2022-09-03T11:08:24.443Z,0.80
2022-09-03T11:09:33.921Z,0.60
2022-09-03T11:10:41.476Z,0.90
2022-09-03T11:11:49.501Z,0.60
2022-09-03T11:13:09.162Z,0.70
2022-09-03T11:14:15.310Z,0.73
2022-09-03T11:15:26.206Z,0.70
2022-09-03T11:16:34.128Z,0.60
2022-09-03T11:17:44.776Z,0.70
2022-09-03T11:18:55.135Z,0.50
2022-09-03T11:20:14.752Z,0.57
2022-09-03T11:21:22.036Z,0.60
2022-09-03T11:22:25.879Z,0.60
2022-09-03T11:23:29.398Z,0.50
2022-09-03T11:24:33.306Z,0.70
2022-09-03T11:25:41.927Z,0.60
2022-09-03T11:26:55.390Z,0.80
2022-09-03T11:28:03.455Z,0.60
2022-09-03T11:29:42.739Z,0.60
2022-09-03T11:31:13.504Z,0.73
2022-09-03T11:32:24.193Z,0.60
2022-09-03T11:33:28.501Z,1.00
2022-09-03T11:34:46.407Z,1.10
2022-09-03T11:36:00.908Z,1.38
2022-09-03T11:37:06.869Z,0.98
2022-09-03T11:38:18.896Z,0.73
2022-09-03T11:39:32.996Z,0.90
2022-09-03T11:40:40.393Z,0.70
2022-09-03T11:41:42.206Z,0.75
2022-09-03T11:42:45.139Z,0.60
2022-09-03T11:43:46.921Z,0.70
2022-09-03T11:44:52.075Z,0.50
2022-09-03T11:46:11.791Z,0.80
2022-09-03T11:47:24.969Z,0.52
2022-09-03T11:48:44.665Z,0.75
2022-09-03T11:49:50.763Z,0.68
2022-09-03T11:50:54.561Z,0.63
2022-09-03T11:52:03.685Z,0.95
2022-09-03T11:53:14.360Z,0.60
2022-09-03T11:54:16.280Z,0.80
2022-09-03T11:55:38.412Z,0.88
2022-09-03T11:56:49.714Z,0.57
2022-09-03T11:57:51.768Z,0.43
2022-09-03T11:59:24.941Z,0.85
2022-09-03T12:00:26.726Z,0.70
2022-09-03T12:01:28.909Z,0.80
2022-09-03T12:02:34.874Z,0.70
2022-09-03T12:03:58.261Z,0.60
2022-09-03T12:05:21.987Z,0.50
2022-09-03T12:06:45.881Z,0.52
2022-09-03T12:07:59.675Z,0.70
2022-09-03T12:09:20.645Z,0.80
2022-09-03T12:10:42.643Z,1.53
2022-09-03T12:11:58.520Z,0.63
2022-09-03T12:13:24.364Z,1.40
2022-09-03T12:14:57.249Z,0.75
2022-09-03T12:16:22.219Z,0.90
2022-09-03T12:18:20.382Z,0.60
2022-09-03T12:19:43.068Z,0.70
2022-09-03T12:21:00.228Z,0.50
2022-09-03T12:22:05.407Z,0.70
2022-09-03T12:23:08.188Z,0.60
2022-09-03T12:24:13.595Z,0.47
2022-09-03T12:25:15.896Z,0.60
2022-09-03T12:26:23.763Z,0.70
2022-09-03T12:27:27.156Z,0.40
2022-09-03T12:28:30.305Z,0.50
2022-09-03T12:29:32.253Z,0.60
2022-09-03T12:30:34.061Z,0.60
2022-09-03T12:31:46.439Z,0.52
2022-09-03T12:32:48.327Z,0.60
2022-09-03T12:33:54.045Z,0.70
2022-09-03T12:34:55.775Z,0.70
2022-09-03T12:35:59.859Z,0.65
2022-09-03T12:37:02.068Z,0.75
2022-09-03T12:38:05.303Z,0.63
2022-09-03T12:42:12.292Z,0.70
2022-09-03T12:44:39.459Z,0.70
2022-09-03T12:48:34.431Z,0.40
2022-09-03T12:49:44.545Z,0.50
2022-09-03T12:50:56.218Z,0.45
2022-09-03T12:52:05.874Z,0.60
2022-09-03T12:53:12.372Z,0.57
2022-09-03T12:54:16.081Z,0.90
2022-09-03T12:55:29.895Z,0.80
2022-09-03T12:56:34.897Z,0.70
2022-09-03T12:57:40.239Z,0.50
2022-09-03T12:58:58.463Z,0.50
2022-09-03T13:00:06.210Z,0.50
2022-09-03T13:01:20.799Z,0.60
2022-09-03T13:02:38.161Z,0.57
2022-09-03T13:04:03.754Z,0.43
2022-09-03T13:05:08.321Z,0.50
2022-09-03T13:06:15.272Z,0.60
2022-09-03T13:07:39.531Z,0.60
2022-09-03T13:09:01.753Z,0.50
2022-09-03T13:10:08.495Z,0.68
2022-09-03T13:11:11.269Z,0.40
2022-09-03T13:12:29.269Z,0.90
2022-09-03T13:13:35.464Z,0.50
2022-09-03T13:14:52.675Z,0.60
2022-09-03T13:16:00.376Z,0.70
2022-09-03T13:17:36.463Z,0.70
2022-09-03T13:18:41.410Z,0.50
2022-09-03T13:20:06.270Z,0.85
2022-09-03T13:21:13.798Z,0.70
2022-09-03T13:22:39.393Z,0.80
2022-09-03T13:23:53.320Z,0.73
2022-09-03T13:25:15.862Z,0.98
2022-09-03T13:26:44.461Z,0.90
2022-09-03T13:28:02.488Z,0.55
2022-09-03T13:29:49.850Z,0.52
2022-09-03T13:31:32.411Z,0.80
2022-09-03T13:32:44.496Z,0.60
2022-09-03T13:33:54.172Z,0.60
2022-09-03T13:35:24.897Z,0.60
2022-09-03T13:36:43.212Z,0.63
2022-09-03T13:37:58.135Z,0.40
2022-09-03T13:39:06.180Z,0.70
2022-09-03T13:40:27.364Z,0.70
2022-09-03T13:41:38.642Z,0.60
2022-09-03T13:42:44.805Z,0.60
2022-09-03T13:44:03.055Z,0.65
2022-09-03T13:45:14.703Z,0.57
2022-09-03T13:46:33.280Z,0.60
2022-09-03T13:48:07.186Z,0.70
2022-09-03T13:49:51.968Z,0.60
2022-09-03T13:51:20.281Z,0.50
2022-09-03T13:52:45.126Z,0.60
2022-09-03T13:54:04.881Z,0.40
2022-09-03T13:55:23.351Z,0.60
2022-09-03T13:56:43.119Z,0.57
2022-09-03T13:57:51.409Z,0.90
2022-09-03T13:59:22.430Z,0.60
2022-09-03T14:00:32.930Z,0.80
2022-09-03T14:01:43.394Z,0.52
2022-09-03T14:02:53.516Z,0.60
2022-09-03T14:04:02.827Z,0.87
2022-09-03T14:05:10.449Z,0.45
2022-09-03T14:06:39.650Z,0.52
2022-09-03T14:07:48.107Z,0.68
2022-09-03T14:09:16.143Z,0.50
2022-09-03T14:10:36.812Z,0.60
2022-09-03T14:11:47.401Z,0.55
2022-09-03T14:13:11.512Z,0.50
2022-09-03T14:14:37.269Z,0.60
2022-09-03T14:16:04.490Z,0.60
2022-09-03T14:17:42.490Z,0.77
2022-09-03T14:19:06.808Z,0.60
2022-09-03T14:20:26.520Z,0.50
2022-09-03T14:21:41.569Z,0.60
2022-09-03T14:22:43.703Z,0.60
2022-09-03T14:24:03.548Z,0.50
2022-09-03T14:25:18.423Z,0.70
2022-09-03T14:26:39.221Z,0.50
2022-09-03T14:27:41.604Z,0.52
2022-09-03T14:28:59.076Z,0.60
2022-09-03T14:30:07.275Z,0.50
2022-09-03T14:31:29.405Z,0.40
2022-09-03T14:32:42.614Z,0.60
2022-09-03T14:34:03.889Z,0.40
2022-09-03T14:35:15.367Z,0.80
2022-09-03T14:36:28.256Z,0.60
2022-09-03T14:37:33.169Z,0.60
2022-09-03T14:38:53.572Z,0.50
2022-09-03T14:40:17.364Z,0.60
2022-09-03T14:42:00.041Z,0.60
2022-09-03T14:43:36.858Z,0.43
2022-09-03T14:45:04.503Z,0.50
2022-09-03T14:46:23.878Z,0.57
2022-09-03T14:48:07.973Z,0.63
2022-09-03T14:49:17.525Z,0.55
2022-09-03T14:50:46.209Z,0.73
2022-09-03T14:52:12.655Z,0.65
2022-09-03T14:53:37.349Z,0.50
2022-09-03T14:55:00.351Z,0.60
2022-09-03T14:56:23.984Z,0.60
2022-09-03T14:57:47.175Z,0.60
2022-09-03T14:59:10.842Z,0.73
2022-09-03T15:00:22.493Z,0.50
2022-09-03T15:01:38.601Z,0.63
2022-09-03T15:03:23.434Z,0.57
2022-09-03T15:04:45.422Z,0.52
2022-09-03T15:06:02.719Z,0.60
2022-09-03T15:07:35.977Z,0.63
2022-09-03T15:08:46.940Z,0.60
2022-09-03T15:10:26.500Z,0.68
2022-09-03T15:11:32.710Z,0.50
2022-09-03T15:12:54.139Z,0.60
2022-09-03T15:14:13.045Z,0.40
2022-09-03T15:15:26.952Z,0.65
2022-09-03T15:17:20.554Z,0.60
2022-09-03T15:18:49.551Z,0.60
2022-09-03T15:20:11.069Z,0.80
2022-09-03T15:21:58.518Z,0.50
2022-09-03T15:23:30.698Z,0.60
2022-09-03T15:24:57.130Z,0.50
2022-09-03T15:26:45.114Z,0.70
2022-09-03T15:28:11.922Z,0.60
2022-09-03T15:29:31.815Z,0.40
2022-09-03T15:30:50.635Z,0.63
2022-09-03T15:32:12.971Z,0.50
2022-09-03T15:33:16.105Z,0.60
2022-09-03T15:34:55.381Z,0.70
2022-09-03T15:36:19.717Z,0.90